Time;durP1;ratioP1;P1;durP2;ratioP2;P2;SDS_P1;SDS_P2;PMS_P1;PMS_P2;Temp;Humidity;BMP_temperature;BMP_pressure;BME280_temperature;BME280_humidity;BME280_pressure;Samples;Min_cycle;Max_cycle;Signal;HPM_P1;HPM_P2
2023/01/14 00:04:52;;;;;;;2.47;0.90;;;8.30;63.90;;;;;;20382134;28;20142;-43
2023/01/14 00:14:53;;;;;;;5.40;1.23;;;8.20;65.10;;;;;;20387906;28;20054;-42
2023/01/14 00:24:54;;;;;;;3.50;1.27;;;8.10;64.60;;;;;;20382249;28;20054;-42
2023/01/14 00:34:55;;;;;;;7.80;1.45;;;8.00;61.60;;;;;;20378119;28;20122;-43
2023/01/14 00:44:56;;;;;;;3.97;1.38;;;8.10;61.30;;;;;;20377403;28;20611;-43
2023/01/14 00:54:57;;;;;;;4.65;1.77;;;7.80;60.10;;;;;;20379650;28;20651;-42
2023/01/14 01:04:58;;;;;;;6.68;1.52;;;7.80;60.50;;;;;;20378321;28;20397;-43
2023/01/14 01:14:59;;;;;;;3.25;0.80;;;7.60;61.10;;;;;;20380482;28;20054;-43
2023/01/14 01:25:00;;;;;;;8.85;2.05;;;7.60;63.00;;;;;;20392358;28;20134;-43
2023/01/14 01:35:01;;;;;;;19.30;2.60;;;7.40;65.80;;;;;;20390343;28;20144;-43
2023/01/14 01:45:36;;;;;;;4.43;1.60;;;7.30;69.90;;;;;;20398005;28;20063;-43
2023/01/14 01:55:41;;;;;;;3.25;1.10;;;7.20;74.40;;;;;;20386326;28;20047;-43
2023/01/14 02:05:43;;;;;;;3.70;2.13;;;7.10;81.90;;;;;;20398796;28;20145;-43
2023/01/14 02:16:06;;;;;;;2.95;1.13;;;7.10;84.50;;;;;;20409209;28;20060;-43
2023/01/14 02:26:25;;;;;;;8.27;2.03;;;7.00;86.80;;;;;;20392745;28;20055;-43
2023/01/14 02:36:40;;;;;;;9.52;2.38;;;6.90;90.00;;;;;;20386707;28;20899;-42
2023/01/14 02:46:50;;;;;;;5.82;1.42;;;6.80;91.30;;;;;;20391400;28;20178;-43
2023/01/14 02:56:54;;;;;;;12.10;3.30;;;6.80;91.40;;;;;;20386060;28;20105;-43
2023/01/14 03:07:01;;;;;;;5.13;1.27;;;6.60;92.40;;;;;;20386278;28;20527;-42
2023/01/14 03:17:26;;;;;;;7.50;2.75;;;6.40;94.20;;;;;;20387192;28;20047;-43
2023/01/14 03:27:32;;;;;;;6.22;2.40;;;6.40;94.70;;;;;;20401339;28;20678;-43
2023/01/14 03:37:35;;;;;;;8.38;2.10;;;6.40;95.80;;;;;;20402223;28;20047;-43
2023/01/14 03:47:37;;;;;;;8.05;1.73;;;6.30;95.80;;;;;;20387268;28;20137;-42
2023/01/14 03:57:44;;;;;;;9.20;2.95;;;6.30;95.00;;;;;;20379761;28;20889;-43
2023/01/14 04:07:47;;;;;;;;;;;6.10;96.00;;;;;;20383059;28;20515;-43
2023/01/14 04:17:47;;;;;;;6.88;2.30;;;6.10;96.60;;;;;;20386233;28;20043;-43
2023/01/14 04:27:48;;;;;;;6.38;2.33;;;6.20;95.40;;;;;;20383884;28;20074;-43
2023/01/14 04:37:51;;;;;;;6.93;3.45;;;6.10;97.10;;;;;;20385670;28;20326;-43
2023/01/14 04:47:52;;;;;;;5.63;2.42;;;6.20;98.40;;;;;;20389415;28;20320;-42
2023/01/14 04:57:53;;;;;;;5.32;2.05;;;6.20;99.90;;;;;;20400217;28;20043;-43
2023/01/14 05:07:54;;;;;;;6.32;3.30;;;6.30;99.90;;;;;;20400090;28;20080;-43
2023/01/14 05:17:56;;;;;;;38.33;4.68;;;6.20;99.90;;;;;;20400977;28;20118;-42
2023/01/14 05:28:02;;;;;;;11.40;4.25;;;6.10;99.90;;;;;;20400348;28;20433;-42
2023/01/14 05:38:04;;;;;;;20.15;3.85;;;6.20;99.90;;;;;;20397987;28;20170;-42
2023/01/14 05:48:05;;;;;;;7.90;2.60;;;6.30;99.90;;;;;;20402234;28;20547;-43
2023/01/14 05:58:07;;;;;;;14.35;3.53;;;6.50;99.90;;;;;;20401497;28;20194;-42
2023/01/14 06:08:08;;;;;;;4.40;1.08;;;6.60;99.90;;;;;;20396152;28;20393;-43
2023/01/14 06:18:21;;;;;;;14.43;4.35;;;6.80;98.20;;;;;;20403613;28;20395;-43
2023/01/14 06:28:22;;;;;;;6.03;2.28;;;6.90;96.40;;;;;;20398307;28;20106;-43
2023/01/14 06:38:23;;;;;;;5.45;1.60;;;7.00;97.10;;;;;;20393125;28;20174;-43
2023/01/14 06:48:25;;;;;;;8.80;2.45;;;6.80;97.90;;;;;;20394865;28;20035;-42
2023/01/14 06:58:26;;;;;;;18.30;3.05;;;6.80;99.20;;;;;;20390108;28;20043;-42
2023/01/14 07:08:27;;;;;;;7.20;2.42;;;6.90;99.90;;;;;;20387777;28;20078;-43
2023/01/14 07:18:29;;;;;;;4.00;1.63;;;6.80;99.90;;;;;;20388146;28;20043;-42
2023/01/14 07:28:30;;;;;;;11.77;2.83;;;6.70;99.90;;;;;;20393986;28;20450;-42
2023/01/14 07:38:31;;;;;;;5.05;1.73;;;6.60;99.90;;;;;;20388234;28;20134;-42
2023/01/14 07:48:32;;;;;;;8.20;2.95;;;6.60;99.90;;;;;;20381933;28;20090;-42
2023/01/14 07:58:34;;;;;;;6.15;1.73;;;6.60;99.90;;;;;;20385009;28;20055;-42
2023/01/14 08:08:35;;;;;;;5.03;1.70;;;6.70;99.90;;;;;;20425624;28;20370;-42
2023/01/14 08:18:36;;;;;;;13.65;3.10;;;6.80;99.90;;;;;;20377001;28;217241;-42
2023/01/14 08:28:38;;;;;;;5.15;2.38;;;6.80;99.90;;;;;;20389275;28;20138;-42
2023/01/14 08:38:41;;;;;;;2.25;1.15;;;6.80;99.90;;;;;;20374000;28;20036;-41
2023/01/14 08:48:42;;;;;;;3.30;2.13;;;6.90;99.90;;;;;;20380579;28;20059;-41
2023/01/14 08:58:43;;;;;;;2.97;1.35;;;7.10;99.90;;;;;;20373303;28;20511;-41
2023/01/14 09:19:04;;;;;;;4.72;2.50;;;7.30;99.90;;;;;;20343991;28;20057;-41
2023/01/14 09:29:05;;;;;;;10.23;2.40;;;7.40;99.90;;;;;;20355792;28;20090;-41
2023/01/14 09:39:06;;;;;;;3.60;2.03;;;7.40;99.90;;;;;;20385144;28;20158;-41
2023/01/14 09:49:12;;;;;;;7.40;2.75;;;7.50;99.90;;;;;;20384406;28;21542;-42
2023/01/14 09:59:39;;;;;;;5.15;1.70;;;7.60;99.90;;;;;;20317079;28;20045;-42
2023/01/14 10:09:48;;;;;;;4.55;1.92;;;7.70;99.90;;;;;;20375497;28;20652;-42
2023/01/14 10:19:51;;;;;;;2.25;1.20;;;7.70;99.90;;;;;;20351545;28;20039;-42
2023/01/14 10:29:55;;;;;;;2.80;0.90;;;7.80;99.90;;;;;;20352240;28;20055;-42
2023/01/14 10:39:57;;;;;;;2.45;1.05;;;8.00;99.90;;;;;;20369540;28;20130;-44
2023/01/14 10:50:16;;;;;;;8.25;2.22;;;8.20;99.90;;;;;;20365256;28;20047;-44
2023/01/14 11:00:50;;;;;;;6.05;1.20;;;8.30;99.90;;;;;;20369682;28;20129;-43
2023/01/14 11:11:00;;;;;;;1.88;0.98;;;8.50;99.90;;;;;;20359105;28;21197;-44
2023/01/14 11:21:16;;;;;;;4.60;0.98;;;8.60;99.90;;;;;;20381372;28;20127;-43
2023/01/14 11:31:31;;;;;;;2.15;1.00;;;8.80;99.90;;;;;;20392029;28;20809;-43
2023/01/14 11:41:40;;;;;;;4.85;1.42;;;9.00;99.90;;;;;;20390491;28;20877;-43
2023/01/14 11:51:41;;;;;;;2.20;1.08;;;9.10;99.90;;;;;;20389380;28;21013;-43
2023/01/14 12:01:49;;;;;;;1.10;0.50;;;9.20;99.90;;;;;;20373899;28;20143;-43
2023/01/14 12:12:01;;;;;;;2.22;0.80;;;9.30;99.90;;;;;;20355179;28;20047;-43
2023/01/14 12:22:21;;;;;;;1.45;0.70;;;9.40;99.90;;;;;;20372169;28;20093;-43
2023/01/14 12:32:24;;;;;;;5.30;0.82;;;9.50;99.90;;;;;;20368244;28;20051;-43
2023/01/14 12:52:53;;;;;;;1.30;0.43;;;9.60;99.90;;;;;;20365933;28;20934;-43
2023/01/14 13:02:56;;;;;;;1.42;0.70;;;9.70;99.90;;;;;;20368414;28;20109;-43
2023/01/14 13:12:59;;;;;;;1.70;0.73;;;9.70;99.90;;;;;;20382376;28;20130;-43
2023/01/14 13:23:00;;;;;;;0.98;0.43;;;9.80;99.90;;;;;;20381755;28;20047;-43
2023/01/14 13:33:01;;;;;;;1.58;0.73;;;10.00;99.90;;;;;;20384079;28;20495;-43
2023/01/14 13:43:07;;;;;;;5.88;2.72;;;10.10;99.90;;;;;;20391971;28;20090;-43
2023/01/14 13:53:17;;;;;;;1.80;0.98;;;10.20;99.90;;;;;;20380484;28;20055;-43
2023/01/14 14:03:35;;;;;;;2.28;0.77;;;10.30;99.90;;;;;;20378554;28;20447;-43
2023/01/14 14:24:05;;;;;;;2.17;1.38;;;10.50;99.90;;;;;;20376596;28;20245;-43
2023/01/14 14:34:10;;;;;;;1.50;1.00;;;10.60;99.90;;;;;;20382935;28;20044;-43
2023/01/14 14:44:19;;;;;;;1.45;0.70;;;10.60;99.90;;;;;;20383816;28;20826;-43
2023/01/14 14:54:30;;;;;;;1.33;0.55;;;10.70;99.90;;;;;;20376424;28;20050;-43
2023/01/14 15:04:31;;;;;;;1.65;0.45;;;10.80;99.90;;;;;;20376815;28;22023;-43
2023/01/14 15:14:35;;;;;;;1.48;0.60;;;10.80;99.90;;;;;;20387040;28;20579;-43
2023/01/14 15:24:37;;;;;;;1.45;0.60;;;10.80;99.90;;;;;;20385758;28;20134;-43
2023/01/14 15:34:38;;;;;;;1.90;0.75;;;10.80;99.90;;;;;;20395465;28;22150;-43
2023/01/14 15:44:45;;;;;;;2.40;1.48;;;10.90;99.90;;;;;;20384182;28;20575;-42
2023/01/14 15:54:46;;;;;;;1.60;0.80;;;10.90;99.90;;;;;;20397737;28;20122;-43
2023/01/14 16:04:47;;;;;;;1.00;0.40;;;10.90;99.90;;;;;;20382045;28;20101;-44
2023/01/14 16:14:48;;;;;;;1.80;0.82;;;10.90;99.90;;;;;;20368251;28;20332;-43
2023/01/14 16:24:49;;;;;;;1.00;0.55;;;10.90;99.90;;;;;;20379577;28;20255;-43
2023/01/14 16:34:50;;;;;;;1.83;0.45;;;11.00;99.90;;;;;;20371863;28;20164;-43
2023/01/14 16:44:51;;;;;;;1.67;0.68;;;11.00;99.90;;;;;;20379067;28;20773;-43
2023/01/14 16:54:52;;;;;;;0.60;0.40;;;11.00;99.90;;;;;;20406889;28;20189;-44
2023/01/14 17:04:53;;;;;;;1.70;0.77;;;11.00;99.90;;;;;;20404357;28;20047;-44
2023/01/14 17:14:54;;;;;;;0.88;0.40;;;11.00;99.90;;;;;;20390861;28;20542;-44
2023/01/14 17:24:56;;;;;;;5.45;2.40;;;11.10;99.90;;;;;;20405193;28;20145;-44
2023/01/14 17:34:57;;;;;;;4.75;1.65;;;11.30;99.90;;;;;;20388459;28;20048;-44
2023/01/14 17:44:58;;;;;;;10.98;4.88;;;11.20;99.90;;;;;;20393233;28;20047;-44
2023/01/14 17:54:59;;;;;;;21.25;5.13;;;11.10;99.90;;;;;;20399377;28;20045;-43
2023/01/14 18:05:02;;;;;;;14.88;6.05;;;11.00;99.90;;;;;;20393150;28;20054;-44
2023/01/14 18:15:04;;;;;;;17.25;6.03;;;11.00;99.90;;;;;;20392502;28;20469;-43
2023/01/14 18:25:07;;;;;;;7.80;2.53;;;11.10;99.90;;;;;;20399586;28;20122;-44
2023/01/14 18:35:08;;;;;;;5.22;1.88;;;11.00;99.90;;;;;;20393093;28;20570;-44
2023/01/14 18:45:09;;;;;;;2.78;1.33;;;10.90;99.90;;;;;;20398797;28;20242;-44
2023/01/14 18:55:11;;;;;;;8.60;5.72;;;10.70;99.90;;;;;;20389760;28;20106;-44
2023/01/14 19:05:12;;;;;;;7.45;1.10;;;10.60;99.90;;;;;;20392663;28;20130;-44
2023/01/14 19:15:13;;;;;;;5.38;1.08;;;10.60;99.90;;;;;;20390163;28;20051;-44
2023/01/14 19:25:14;;;;;;;3.25;1.27;;;9.10;95.70;;;;;;20396645;28;20069;-43
2023/01/14 19:35:15;;;;;;;2.38;0.73;;;8.40;99.90;;;;;;20376411;28;20456;-43
2023/01/14 19:45:16;;;;;;;2.90;1.33;;;8.10;99.90;;;;;;20381783;28;20131;-43
2023/01/14 19:55:17;;;;;;;5.97;2.03;;;8.00;99.90;;;;;;20388198;28;20571;-44
2023/01/14 20:05:21;;;;;;;3.40;1.00;;;7.90;99.90;;;;;;20378303;28;21643;-44
2023/01/14 20:15:22;;;;;;;2.03;0.90;;;8.00;99.90;;;;;;20382069;28;20047;-44
2023/01/14 20:25:24;;;;;;;2.83;1.08;;;7.90;99.90;;;;;;20377285;28;23020;-43
2023/01/14 20:35:26;;;;;;;2.60;0.60;;;7.80;99.90;;;;;;20378257;28;20896;-44
2023/01/14 20:45:27;;;;;;;1.15;0.60;;;7.80;99.80;;;;;;20354087;28;20043;-43
2023/01/14 20:55:32;;;;;;;3.28;0.65;;;7.80;95.50;;;;;;20381013;28;20074;-44
2023/01/14 21:05:33;;;;;;;3.15;0.93;;;7.70;97.90;;;;;;20379128;28;20725;-43
2023/01/14 21:25:54;;;;;;;4.72;0.52;;;7.70;98.30;;;;;;20371589;28;20739;-43
2023/01/14 21:35:55;;;;;;;3.83;0.75;;;7.80;94.50;;;;;;20374030;28;20109;-44
2023/01/14 21:46:06;;;;;;;2.75;0.63;;;7.80;92.70;;;;;;20391606;28;20039;-44
2023/01/14 21:56:07;;;;;;;1.42;0.63;;;7.70;82.90;;;;;;20385988;28;20036;-43
2023/01/14 22:06:10;;;;;;;5.80;1.05;;;7.60;82.70;;;;;;20386301;28;20059;-44
2023/01/14 22:16:11;;;;;;;1.67;0.63;;;7.60;75.40;;;;;;20388975;28;20069;-43
2023/01/14 22:26:12;;;;;;;2.67;0.63;;;7.60;71.00;;;;;;20383921;28;20599;-44
2023/01/14 22:36:13;;;;;;;17.83;1.15;;;7.70;68.30;;;;;;20385712;28;20040;-44
2023/01/14 22:46:14;;;;;;;3.08;0.68;;;7.60;71.60;;;;;;20386811;28;20190;-44
2023/01/14 22:56:15;;;;;;;2.17;0.55;;;7.60;66.70;;;;;;20378848;28;20138;-45
2023/01/14 23:06:18;;;;;;;2.63;0.80;;;7.60;61.80;;;;;;20385594;28;20062;-44
2023/01/14 23:26:41;;;;;;;5.80;1.52;;;7.60;57.30;;;;;;20380347;28;21065;-44
2023/01/14 23:36:43;;;;;;;4.40;1.40;;;7.70;57.50;;;;;;20377245;28;20154;-43
2023/01/14 23:46:43;;;;;;;5.20;1.70;;;7.80;55.80;;;;;;20381333;28;20047;-44
2023/01/14 23:56:44;;;;;;;3.42;1.42;;;7.80;55.40;;;;;;20382484;28;20071;-44
